Webcam mot vest more information Webcam facing west


BeaufortBeaufort


Du finner stasjonens værinfo også på:

European Weather Network

WeatherCloud

Weather Underground

HAMweather, WeatherForYou, PWS Weather


Programvare vi bruker:

Weather Display

Leuven-Template 2.8

One.com

Værrapport fra de nærmeste flyplassene

   
ENEV - Evenes Lufthavn, (Harstad, Narvik), Norway
Oppdatert: 18-09-2018 22:50
Patches of, tÃ¥ke, Klart  
Patches of, tÃ¥ke, Klart  
   Vind vesterÃ¥len: NNØ 2.1 m/s
Vind vesterålen: NNØ 2.1 m/s
Temperatur: 5°C
Wind Chill: 3°C
Duggpunkt: 4°C
Luftfuktighet: 93%
Lufttrykk: 1001 hPa
Skyer: Klart
Sikt: Mer enn 10 km
Detaljer skyer: Klart
ENEV 182050Z AUTO 02004KT 9999 BCFG NCD 05/04 Q1001 RMK WIND 1400FT 09011KT
ENSK - Stokmarknes Lufthavn, Vesterålen,Norway
Oppdatert: 18-09-2018 21:50
Oppdatert, se klokkeslett
Klart  
Klart  
   Vind vesterÃ¥len: NNØ 2.1 m/s
Vind vesterålen: NNØ 2.1 m/s
Temperatur: 5°C
Wind Chill: 3°C
Duggpunkt: 4°C
Luftfuktighet: 93%
Lufttrykk: 1002 hPa
Sikt: Mer enn 10 km
Detaljer skyer: Klart
ENSK 181950Z 03004KT CAVOK 05/04 Q1002
ENAN - Andenes Lufthavn, Vesterålen, Norway
Oppdatert: 18-09-2018 22:50
For det meste Overskyet  
For det meste Overskyet  
   Vind vesterÃ¥len: Øst 4.1 m/s
Vind vesterålen: Øst 4.1 m/s
Temperatur: 9°C
Wind Chill: 7°C
Duggpunkt: 8°C
Luftfuktighet: 94%
Lufttrykk: 1002 hPa
Skyer: For det meste Overskyet
Sikt: Mer enn 10 km
Detaljer skyer: For det meste Overskyet 1402.1 m
ENAN 182050Z 09008KT 9999 BKN046 09/08 Q1002
ENLK - Leknes Lufthavn, Lofoten, Norway
Oppdatert: 18-09-2018 22:50
Noen skyer  
Noen skyer  
   Vind vesterÃ¥len: varierende 1 m/s
Vind vesterålen: varierende 1 m/s
Temperatur: 8°C
Duggpunkt: 6°C
Luftfuktighet: 87%
Lufttrykk: 1000 hPa
Skyer: Noen skyer
Sikt: Mer enn 10 km
Detaljer skyer: Noen skyer 609.6 m
ENLK 182050Z VRB02KT 9999 FEW020 08/06 Q1000
ENSH - Svolvær, Helle, Lofoten, Norway
Oppdatert: 18-09-2018 22:20
Klart  
Klart  
   Vind vesterÃ¥len: NØ 6.7 m/s
Vind vesterålen: NØ 6.7 m/s
Temperatur: 9°C
Wind Chill: 6°C
Duggpunkt: 7°C
Luftfuktighet: 87%
Lufttrykk: 1000 hPa
Sikt: Mer enn 10 km
Detaljer skyer: Klart
ENSH 182020Z 04013KT CAVOK 09/07 Q1000 RMK WIND 150FT 35005KT 300V040
ENBO - Bodø Lufthavn, Norway
Oppdatert: 18-09-2018 22:50
Klart  
Klart  
   Vind vesterÃ¥len: Øst 9.3 m/s
Vind vesterålen: Øst 9.3 m/s
Temperatur: 10°C
Wind Chill: 6°C
Duggpunkt: 5°C
Luftfuktighet: 71%
Lufttrykk: 998 hPa
Sikt: Mer enn 10 km
Detaljer skyer: Klart
ENBO 182050Z 08018KT CAVOK 10/05 Q0998 NOSIG

Script utviklet av  Saratoga-weather.org Tilpasset for tamplaten av  Weerstation Leuven